Time;durP1;ratioP1;P1;durP2;ratioP2;P2;SDS_P1;SDS_P2;PMS_P1;PMS_P2;Temp;Humidity;BMP_temperature;BMP_pressure;BME280_temperature;BME280_humidity;BME280_pressure;Samples;Min_cycle;Max_cycle;Signal;HPM_P1;HPM_P2
2022/10/02 00:02:29;;;;;;;6.63;2.43;;;;;;;-145.23;100.00;58621.06;4989341;28;20252;-53
2022/10/02 00:04:59;;;;;;;4.57;1.77;;;;;;;-145.23;100.00;58621.06;4995341;28;20233;-52
2022/10/02 00:07:30;;;;;;;5.30;2.27;;;;;;;-145.23;100.00;58621.06;5003321;28;20239;-52
2022/10/02 00:10:00;;;;;;;2.87;2.00;;;;;;;-145.23;100.00;58621.06;4990045;28;20236;-53
2022/10/02 00:12:27;;;;;;;4.83;2.20;;;;;;;-145.23;100.00;58621.06;4989239;28;20316;-52
2022/10/02 00:15:01;;;;;;;5.03;1.73;;;;;;;-145.23;100.00;58621.06;4993159;28;20989;-52
2022/10/02 00:17:31;;;;;;;5.07;1.90;;;;;;;-145.23;100.00;58621.06;4983357;28;20232;-54
2022/10/02 00:19:59;;;;;;;4.83;2.03;;;;;;;-145.23;100.00;58621.06;4981831;28;20296;-53
2022/10/02 00:22:32;;;;;;;4.80;2.47;;;;;;;-145.23;100.00;58621.06;4986029;28;20719;-53
2022/10/02 00:25:04;;;;;;;5.00;2.27;;;;;;;-145.23;100.00;58621.06;4986823;28;20233;-52
2022/10/02 00:27:40;;;;;;;5.17;2.20;;;;;;;-145.23;100.00;58621.06;4990911;28;20716;-52
2022/10/02 00:30:11;;;;;;;8.30;1.90;;;;;;;-145.23;100.00;58621.06;4987440;28;20740;-52
2022/10/02 00:32:44;;;;;;;5.47;2.50;;;;;;;-145.23;100.00;58621.06;4984113;28;20238;-51
2022/10/02 00:35:47;;;;;;;3.77;2.30;;;;;;;-145.23;100.00;58621.06;4980906;28;20729;-52
2022/10/02 00:38:22;;;;;;;5.63;2.53;;;;;;;-145.23;100.00;58621.06;4945735;28;20302;-53
2022/10/02 00:41:04;;;;;;;9.10;2.80;;;;;;;-145.23;100.00;58621.06;4926092;28;20318;-52
2022/10/02 00:43:36;;;;;;;7.90;2.30;;;;;;;-145.23;100.00;58621.06;4962152;28;20316;-52
2022/10/02 00:46:23;;;;;;;6.17;2.37;;;;;;;-145.23;100.00;58621.06;4994583;28;20337;-52
2022/10/02 00:49:08;;;;;;;3.63;1.80;;;;;;;-145.23;100.00;58621.06;4996949;28;20228;-52
2022/10/02 00:51:45;;;;;;;4.53;2.60;;;;;;;-145.23;100.00;58621.06;5011927;28;20775;-51
2022/10/02 00:54:26;;;;;;;8.10;2.37;;;;;;;-145.23;100.00;58621.06;4995529;28;20287;-52
2022/10/02 00:56:57;;;;;;;3.97;1.80;;;;;;;-145.23;100.00;58621.06;4984576;28;20251;-52
2022/10/02 00:59:43;;;;;;;3.63;1.90;;;;;;;-145.23;100.00;58621.06;4991924;28;20249;-52
2022/10/02 01:02:22;;;;;;;9.40;2.23;;;;;;;-145.23;100.00;58621.06;5008679;28;20363;-52
2022/10/02 01:04:49;;;;;;;6.27;2.10;;;;;;;-145.23;100.00;58621.06;5005229;28;20238;-52
2022/10/02 01:07:16;;;;;;;3.73;1.90;;;;;;;-145.23;100.00;58621.06;4998291;28;20236;-52
2022/10/02 01:09:43;;;;;;;5.57;2.00;;;;;;;-145.23;100.00;58621.06;4992062;28;20663;-53
2022/10/02 01:12:09;;;;;;;4.00;2.33;;;;;;;-145.23;100.00;58621.06;5016034;28;20236;-51
2022/10/02 01:14:39;;;;;;;7.37;2.40;;;;;;;-145.23;100.00;58621.06;5005838;28;20238;-52
2022/10/02 01:17:19;;;;;;;5.27;2.00;;;;;;;-145.23;100.00;58621.06;5005812;28;20233;-54
2022/10/02 01:19:47;;;;;;;5.33;2.00;;;;;;;-145.23;100.00;58621.06;4997772;28;20718;-53
2022/10/02 01:22:17;;;;;;;5.00;1.77;;;;;;;-145.23;100.00;58621.06;4996310;28;20255;-53
2022/10/02 01:24:49;;;;;;;9.13;2.57;;;;;;;-145.23;100.00;58621.06;4995050;28;20272;-52
2022/10/02 01:27:16;;;;;;;3.30;1.73;;;;;;;-145.23;100.00;58621.06;5004649;28;20286;-53
2022/10/02 01:29:43;;;;;;;6.23;2.53;;;;;;;-145.23;100.00;58621.06;4994792;28;21299;-52
2022/10/02 01:32:10;;;;;;;4.60;2.10;;;;;;;-145.23;100.00;58621.06;4997239;28;20756;-52
2022/10/02 01:34:39;;;;;;;6.17;2.30;;;;;;;-145.23;100.00;58621.06;4996294;28;20312;-52
2022/10/02 01:37:06;;;;;;;6.03;2.10;;;;;;;-145.23;100.00;58621.06;4991283;28;20755;-50
2022/10/02 01:39:33;;;;;;;7.40;2.10;;;;;;;-145.23;100.00;58621.06;5005271;28;20335;-51
2022/10/02 01:42:02;;;;;;;3.03;1.77;;;;;;;-145.23;100.00;58621.06;5007807;28;20229;-53
2022/10/02 01:44:29;;;;;;;3.73;2.47;;;;;;;-145.23;100.00;58621.06;4994323;28;20261;-53
2022/10/02 01:47:01;;;;;;;6.43;2.33;;;;;;;-145.23;100.00;58621.06;4992840;28;20313;-52
2022/10/02 01:49:43;;;;;;;9.23;2.60;;;;;;;-145.23;100.00;58621.06;4996621;28;20663;-52
2022/10/02 01:52:30;;;;;;;9.37;3.03;;;;;;;-145.23;100.00;58621.06;5009615;28;20313;-52
2022/10/02 01:55:06;;;;;;;4.13;2.10;;;;;;;-145.23;100.00;58621.06;4997618;28;20232;-53
2022/10/02 01:57:44;;;;;;;4.10;2.03;;;;;;;-145.23;100.00;58621.06;4990596;28;20284;-53
2022/10/02 02:00:13;;;;;;;10.70;3.20;;;;;;;-145.23;100.00;58621.06;5007076;28;20279;-51
2022/10/02 02:02:48;;;;;;;8.00;2.43;;;;;;;-145.23;100.00;58621.06;5008610;28;20803;-52
2022/10/02 02:05:23;;;;;;;4.27;2.57;;;;;;;-145.23;100.00;58621.06;4994753;28;20249;-52
2022/10/02 02:07:53;;;;;;;6.37;2.43;;;;;;;-145.23;100.00;58621.06;4989664;28;20690;-53
2022/10/02 02:10:25;;;;;;;5.77;2.53;;;;;;;-145.23;100.00;58621.06;4992821;28;20688;-53
2022/10/02 02:12:58;;;;;;;8.33;2.47;;;;;;;-145.23;100.00;58621.06;5002451;28;20322;-52
2022/10/02 02:15:28;;;;;;;6.43;2.10;;;;;;;-145.23;100.00;58621.06;4997823;28;20233;-53
2022/10/02 02:17:58;;;;;;;3.27;2.10;;;;;;;-145.23;100.00;58621.06;4993225;28;20261;-52
2022/10/02 02:20:29;;;;;;;7.60;2.30;;;;;;;-145.23;100.00;58621.06;4994886;28;20244;-52
2022/10/02 02:23:01;;;;;;;7.77;2.73;;;;;;;-145.23;100.00;58621.06;4994553;28;20260;-52
2022/10/02 02:25:30;;;;;;;4.83;1.93;;;;;;;-145.23;100.00;58621.06;5011750;28;20257;-52
2022/10/02 02:28:01;;;;;;;6.37;1.97;;;;;;;-145.23;100.00;58621.06;4998081;28;20233;-53
2022/10/02 02:30:30;;;;;;;10.33;2.13;;;;;;;-145.23;100.00;58621.06;4988959;28;20237;-52
2022/10/02 02:32:59;;;;;;;7.57;2.20;;;;;;;-145.23;100.00;58621.06;4996000;28;20261;-50
2022/10/02 02:35:31;;;;;;;3.10;1.80;;;;;;;-145.23;100.00;58621.06;5002558;28;20233;-51
2022/10/02 02:38:02;;;;;;;7.07;2.50;;;;;;;-145.23;100.00;58621.06;5004429;28;20265;-52
2022/10/02 02:40:31;;;;;;;9.43;2.30;;;;;;;-145.23;100.00;58621.06;4994180;28;20241;-52
2022/10/02 02:43:02;;;;;;;3.97;2.20;;;;;;;-145.23;100.00;58621.06;4997066;28;20320;-53
2022/10/02 02:45:31;;;;;;;5.23;1.93;;;;;;;-145.23;100.00;58621.06;4990197;28;20241;-51
2022/10/02 02:48:02;;;;;;;10.07;2.53;;;;;;;-145.23;100.00;58621.06;5005358;28;20290;-52
2022/10/02 02:50:32;;;;;;;8.83;2.47;;;;;;;-145.23;100.00;58621.06;4998127;28;20233;-51
2022/10/02 02:53:03;;;;;;;9.93;2.57;;;;;;;-145.23;100.00;58621.06;4995119;28;20261;-53
2022/10/02 02:55:33;;;;;;;8.50;2.17;;;;;;;-145.23;100.00;58621.06;4988048;28;20234;-50
2022/10/02 02:58:07;;;;;;;7.03;2.70;;;;;;;-145.23;100.00;58621.06;4996420;28;20731;-52
2022/10/02 03:00:34;;;;;;;10.40;2.43;;;;;;;-145.23;100.00;58621.06;5008900;28;20241;-52
2022/10/02 03:03:04;;;;;;;6.40;2.07;;;;;;;-145.23;100.00;58621.06;4999853;28;20312;-53
2022/10/02 03:05:31;;;;;;;5.43;2.17;;;;;;;-145.23;100.00;58621.06;4996468;28;20237;-52
2022/10/02 03:08:01;;;;;;;3.27;2.17;;;;;;;-145.23;100.00;58621.06;4992828;28;20238;-52
2022/10/02 03:10:36;;;;;;;4.63;1.73;;;;;;;-145.23;100.00;58621.06;4999014;28;20233;-53
2022/10/02 03:13:11;;;;;;;3.83;1.93;;;;;;;-145.23;100.00;58621.06;5003776;28;20293;-51
2022/10/02 03:15:48;;;;;;;3.23;2.33;;;;;;;-145.23;100.00;58621.06;4997912;28;20246;-52
2022/10/02 03:18:24;;;;;;;7.50;2.30;;;;;;;-145.23;100.00;58621.06;5009109;28;20240;-53
2022/10/02 03:20:58;;;;;;;4.60;2.50;;;;;;;-145.23;100.00;58621.06;4991850;28;20253;-51
2022/10/02 03:23:28;;;;;;;11.93;2.40;;;;;;;-145.23;100.00;58621.06;4990191;28;20225;-51
2022/10/02 03:25:59;;;;;;;8.80;2.10;;;;;;;-145.23;100.00;58621.06;5001169;28;20234;-53
2022/10/02 03:28:29;;;;;;;5.87;2.60;;;;;;;-145.23;100.00;58621.06;5009538;28;20232;-51
2022/10/02 03:30:56;;;;;;;5.23;2.17;;;;;;;-145.23;100.00;58621.06;4987727;28;20255;-51
2022/10/02 03:33:24;;;;;;;6.77;2.10;;;;;;;-145.23;100.00;58621.06;4995388;28;20233;-56
2022/10/02 03:35:51;;;;;;;4.57;2.00;;;;;;;-145.23;100.00;58621.06;4992355;28;20308;-52
2022/10/02 03:38:18;;;;;;;5.80;1.80;;;;;;;-145.23;100.00;58621.06;4994345;28;20261;-52
2022/10/02 03:40:45;;;;;;;7.30;2.20;;;;;;;-145.23;100.00;58621.06;5002468;28;20593;-52
2022/10/02 03:43:19;;;;;;;7.50;2.43;;;;;;;-145.23;100.00;58621.06;4998256;28;20626;-53
2022/10/02 03:45:47;;;;;;;3.73;2.13;;;;;;;-145.23;100.00;58621.06;4993072;28;20260;-52
2022/10/02 03:48:17;;;;;;;9.97;2.63;;;;;;;-145.23;100.00;58621.06;4994406;28;20230;-53
2022/10/02 03:50:44;;;;;;;3.70;1.83;;;;;;;-145.23;100.00;58621.06;4989317;28;20245;-51
2022/10/02 03:53:14;;;;;;;4.23;2.17;;;;;;;-145.23;100.00;58621.06;5008126;28;20240;-51
2022/10/02 03:55:45;;;;;;;7.30;2.80;;;;;;;-145.23;100.00;58621.06;4996463;28;20786;-52
2022/10/02 03:58:14;;;;;;;6.07;2.53;;;;;;;-145.23;100.00;58621.06;5012917;28;20233;-52
2022/10/02 04:00:45;;;;;;;8.53;2.00;;;;;;;-145.23;100.00;58621.06;4996101;28;20312;-53
2022/10/02 04:03:16;;;;;;;7.33;2.43;;;;;;;-145.23;100.00;58621.06;4993600;28;20229;-51
2022/10/02 04:05:47;;;;;;;5.13;2.20;;;;;;;-145.23;100.00;58621.06;5007674;28;20237;-52
2022/10/02 04:08:17;;;;;;;6.80;2.23;;;;;;;-145.23;100.00;58621.06;4992635;28;20322;-53
2022/10/02 04:10:49;;;;;;;11.37;2.07;;;;;;;-145.23;100.00;58621.06;4992292;28;20248;-53
2022/10/02 04:13:21;;;;;;;7.70;2.53;;;;;;;-145.23;100.00;58621.06;4995046;28;20237;-53
2022/10/02 04:15:57;;;;;;;6.30;2.23;;;;;;;-145.23;100.00;58621.06;5006575;28;20326;-51
2022/10/02 04:18:29;;;;;;;4.70;2.17;;;;;;;-145.23;100.00;58621.06;4993738;28;20233;-52
2022/10/02 04:20:59;;;;;;;8.10;2.33;;;;;;;-145.23;100.00;58621.06;4990978;28;20394;-52
2022/10/02 04:23:35;;;;;;;4.37;1.93;;;;;;;-145.23;100.00;58621.06;4990168;28;20715;-51
2022/10/02 04:26:06;;;;;;;9.07;2.00;;;;;;;-145.23;100.00;58621.06;5004148;28;20258;-50
2022/10/02 04:28:39;;;;;;;2.40;1.50;;;;;;;-145.23;100.00;58621.06;5008891;28;20260;-52
2022/10/02 04:31:10;;;;;;;9.87;2.63;;;;;;;-145.23;100.00;58621.06;4996514;28;20229;-51
2022/10/02 04:33:38;;;;;;;7.53;2.40;;;;;;;-145.23;100.00;58621.06;4992568;28;20239;-52
2022/10/02 04:36:13;;;;;;;5.63;2.10;;;;;;;-145.23;100.00;58621.06;4993736;28;20312;-53
2022/10/02 04:39:07;;;;;;;3.50;1.97;;;;;;;-145.23;100.00;58621.06;5003301;28;20255;-52
2022/10/02 04:41:53;;;;;;;7.43;3.50;;;;;;;-145.23;100.00;58621.06;5000291;28;20325;-52
2022/10/02 04:44:33;;;;;;;4.20;1.83;;;;;;;-145.23;100.00;58621.06;4998530;28;20233;-51
2022/10/02 04:47:07;;;;;;;7.10;2.03;;;;;;;-145.23;100.00;58621.06;4983091;28;20706;-52
2022/10/02 04:49:47;;;;;;;3.13;1.40;;;;;;;-145.23;100.00;58621.06;4992547;28;20320;-51
2022/10/02 04:52:36;;;;;;;4.87;2.27;;;;;;;-145.23;100.00;58621.06;5002535;28;20243;-52
2022/10/02 04:55:17;;;;;;;7.10;2.37;;;;;;;-145.23;100.00;58621.06;4990719;28;20265;-52
2022/10/02 04:57:59;;;;;;;4.60;2.03;;;;;;;-145.23;100.00;58621.06;4999163;28;20253;-52
2022/10/02 05:00:30;;;;;;;8.60;1.80;;;;;;;-145.23;100.00;58621.06;4992746;28;20324;-54
2022/10/02 05:03:05;;;;;;;3.03;2.00;;;;;;;-145.23;100.00;58621.06;5001194;28;20232;-53
2022/10/02 05:05:45;;;;;;;4.07;1.73;;;;;;;-145.23;100.00;58621.06;5008171;28;20368;-54
2022/10/02 05:08:21;;;;;;;11.87;2.13;;;;;;;-145.23;100.00;58621.06;4997294;28;20335;-53
2022/10/02 05:11:01;;;;;;;6.20;2.13;;;;;;;-145.23;100.00;58621.06;4983181;28;20305;-54
2022/10/02 05:13:39;;;;;;;13.33;2.93;;;;;;;-145.23;100.00;58621.06;4981951;28;20660;-53
2022/10/02 05:16:19;;;;;;;7.40;2.33;;;;;;;-145.23;100.00;58621.06;5011171;28;20240;-53
2022/10/02 05:19:16;;;;;;;7.23;2.60;;;;;;;-145.23;100.00;58621.06;4996629;28;20237;-53
2022/10/02 05:21:58;;;;;;;3.30;1.87;;;;;;;-145.23;100.00;58621.06;4993432;28;20250;-52
2022/10/02 05:24:40;;;;;;;9.97;2.17;;;;;;;-145.23;100.00;58621.06;4988933;28;20238;-53
2022/10/02 05:27:25;;;;;;;5.10;2.07;;;;;;;-145.23;100.00;58621.06;4993921;28;20324;-53
2022/10/02 05:30:04;;;;;;;5.80;2.30;;;;;;;-145.23;100.00;58621.06;4993942;28;20230;-53
2022/10/02 05:32:51;;;;;;;6.80;2.30;;;;;;;-145.23;100.00;58621.06;4987776;28;20236;-52
2022/10/02 05:35:27;;;;;;;7.57;2.33;;;;;;;-145.23;100.00;58621.06;4982800;28;20241;-52
2022/10/02 05:38:05;;;;;;;5.23;2.00;;;;;;;-145.23;100.00;58621.06;4982824;28;20691;-52
2022/10/02 05:40:36;;;;;;;4.50;2.03;;;;;;;-145.23;100.00;58621.06;4990607;28;20233;-53
2022/10/02 05:43:07;;;;;;;4.67;2.00;;;;;;;-145.23;100.00;58621.06;4985020;28;20259;-54
2022/10/02 05:45:39;;;;;;;4.97;2.23;;;;;;;-145.23;100.00;58621.06;4983517;28;20234;-52
2022/10/02 05:48:14;;;;;;;6.47;2.23;;;;;;;-145.23;100.00;58621.06;4999096;28;20238;-52
2022/10/02 05:50:42;;;;;;;4.57;2.00;;;;;;;-145.23;100.00;58621.06;5007226;28;20245;-52
2022/10/02 05:53:16;;;;;;;6.53;2.50;;;;;;;-145.23;100.00;58621.06;5008186;28;20254;-51
2022/10/02 05:55:48;;;;;;;4.67;1.87;;;;;;;-145.23;100.00;58621.06;4996933;28;20236;-52
2022/10/02 05:58:21;;;;;;;4.97;1.97;;;;;;;-145.23;100.00;58621.06;4997334;28;20245;-52
2022/10/02 06:00:50;;;;;;;7.97;2.60;;;;;;;-145.23;100.00;58621.06;5007425;28;20249;-52
2022/10/02 06:03:21;;;;;;;4.80;1.90;;;;;;;-145.23;100.00;58621.06;5000227;28;20252;-53
2022/10/02 06:05:54;;;;;;;7.97;2.67;;;;;;;-145.23;100.00;58621.06;5007152;28;20715;-52
2022/10/02 06:08:29;;;;;;;8.77;2.73;;;;;;;-145.23;100.00;58621.06;5001474;28;20261;-54
2022/10/02 06:11:00;;;;;;;5.77;2.83;;;;;;;-145.23;100.00;58621.06;5007263;28;20306;-56
2022/10/02 06:13:30;;;;;;;8.20;2.10;;;;;;;-145.23;100.00;58621.06;4998759;28;20575;-57
2022/10/02 06:16:08;;;;;;;3.17;2.33;;;;;;;-145.23;100.00;58621.06;4995196;28;20239;-56
2022/10/02 06:18:39;;;;;;;7.23;2.80;;;;;;;-145.23;100.00;58621.06;4989673;28;20240;-58
2022/10/02 06:21:09;;;;;;;10.13;3.00;;;;;;;-145.23;100.00;58621.06;4999255;28;20245;-56
2022/10/02 06:23:39;;;;;;;8.67;3.70;;;;;;;-145.23;100.00;58621.06;4996771;28;20281;-57
2022/10/02 06:26:11;;;;;;;12.07;3.67;;;;;;;-145.23;100.00;58621.06;5002299;28;20241;-57
2022/10/02 06:28:40;;;;;;;9.20;3.47;;;;;;;-145.23;100.00;58621.06;4998256;28;20225;-56
2022/10/02 06:31:14;;;;;;;4.20;2.20;;;;;;;-145.23;100.00;58621.06;4991690;28;20324;-57
2022/10/02 06:33:41;;;;;;;9.43;4.23;;;;;;;-145.23;100.00;58621.06;4988274;28;20247;-55
2022/10/02 06:36:28;;;;;;;7.23;3.37;;;;;;;-145.23;100.00;58621.06;4989289;28;20232;-54
2022/10/02 06:39:19;;;;;;;5.30;3.67;;;;;;;-145.23;100.00;58621.06;4981238;28;20599;-53
2022/10/02 06:41:53;;;;;;;7.63;3.07;;;;;;;-145.23;100.00;58621.06;4991946;28;20220;-54
2022/10/02 06:44:23;;;;;;;5.43;4.20;;;;;;;-145.23;100.00;58621.06;4989632;28;20241;-53
2022/10/02 06:47:05;;;;;;;7.97;3.40;;;;;;;-145.23;100.00;58621.06;4990687;28;20292;-53
2022/10/02 06:49:41;;;;;;;8.77;4.07;;;;;;;-145.23;100.00;58621.06;4998022;28;20225;-55
2022/10/02 06:52:14;;;;;;;8.87;4.23;;;;;;;-145.23;100.00;58621.06;4995180;28;20248;-53
2022/10/02 06:54:53;;;;;;;11.40;4.03;;;;;;;-145.23;100.00;58621.06;4993807;28;20616;-52
2022/10/02 06:57:31;;;;;;;10.33;4.23;;;;;;;-145.23;100.00;58621.06;4989957;28;20233;-52
2022/10/02 07:00:10;;;;;;;9.60;3.97;;;;;;;-145.23;100.00;58621.06;4997574;28;20324;-52
2022/10/02 07:02:58;;;;;;;5.90;3.13;;;;;;;-145.23;100.00;58621.06;4997087;28;20619;-52
2022/10/02 07:05:41;;;;;;;11.27;3.90;;;;;;;-145.23;100.00;58621.06;4991942;28;21993;-52
2022/10/02 07:08:12;;;;;;;8.67;4.47;;;;;;;-145.23;100.00;58621.06;4989303;28;20733;-54
2022/10/02 07:10:43;;;;;;;9.13;4.03;;;;;;;-145.23;100.00;58621.06;4988417;28;20233;-52
2022/10/02 07:13:35;;;;;;;13.23;4.07;;;;;;;-145.23;100.00;58621.06;4995601;28;20283;-56
2022/10/02 07:16:11;;;;;;;5.70;3.90;;;;;;;-145.23;100.00;58621.06;4986012;28;20225;-52
2022/10/02 07:18:49;;;;;;;11.33;4.33;;;;;;;-145.23;100.00;58621.06;4987409;28;20240;-52
2022/10/02 07:21:22;;;;;;;9.10;5.13;;;;;;;-145.23;100.00;58621.06;4989781;28;20747;-53
2022/10/02 07:23:53;;;;;;;10.60;4.67;;;;;;;-145.23;100.00;58621.06;4984731;28;20238;-53
2022/10/02 07:26:37;;;;;;;7.73;4.60;;;;;;;-145.23;100.00;58621.06;4995777;28;20268;-52
2022/10/02 07:29:21;;;;;;;8.53;4.43;;;;;;;-145.23;100.00;58621.06;4987298;28;20320;-52
2022/10/02 07:31:55;;;;;;;9.57;6.00;;;;;;;-145.23;100.00;58621.06;4989359;28;21203;-52
2022/10/02 07:34:31;;;;;;;9.80;4.63;;;;;;;-145.23;100.00;58621.06;4990979;28;20240;-57
2022/10/02 07:37:06;;;;;;;10.33;5.60;;;;;;;-145.23;100.00;58621.06;4995963;28;20288;-52
2022/10/02 07:39:45;;;;;;;7.13;4.03;;;;;;;-145.23;100.00;58621.06;4988498;28;20245;-52
2022/10/02 07:42:40;;;;;;;9.98;5.55;;;;;;;-145.23;100.00;58621.06;4986017;28;20304;-53
2022/10/02 07:45:25;;;;;;;9.90;4.10;;;;;;;-145.23;100.00;58621.06;5003585;28;20244;-51
2022/10/02 07:48:14;;;;;;;8.73;4.07;;;;;;;-145.23;100.00;58621.06;4993905;28;20245;-52
2022/10/02 07:50:50;;;;;;;12.65;5.00;;;;;;;-145.23;100.00;58621.06;4991089;28;20226;-52
2022/10/02 07:53:23;;;;;;;6.60;4.37;;;;;;;-145.23;100.00;58621.06;5001084;28;20324;-53
2022/10/02 07:55:53;;;;;;;9.98;4.93;;;;;;;-145.23;100.00;58621.06;4987773;28;20229;-52
2022/10/02 07:58:30;;;;;;;12.02;4.95;;;;;;;-145.23;100.00;58621.06;4994118;28;20287;-52
2022/10/02 08:01:00;;;;;;;8.23;4.80;;;;;;;-145.23;100.00;58621.06;4990861;28;20225;-52
2022/10/02 08:03:30;;;;;;;13.80;5.75;;;;;;;-145.23;100.00;58621.06;5004622;28;20236;-52
2022/10/02 08:05:58;;;;;;;10.65;3.60;;;;;;;-145.23;100.00;58621.06;4998241;28;20316;-52
2022/10/02 08:08:29;;;;;;;11.90;5.75;;;;;;;-145.23;100.00;58621.06;4992374;28;20234;-52
2022/10/02 08:11:02;;;;;;;15.45;5.10;;;;;;;-145.23;100.00;58621.06;4985003;28;20233;-53
2022/10/02 08:13:34;;;;;;;11.38;4.60;;;;;;;-145.23;100.00;58621.06;5012182;28;20228;-53
2022/10/02 08:16:03;;;;;;;10.68;5.38;;;;;;;-145.23;100.00;58621.06;4998481;28;20292;-55
2022/10/02 08:18:34;;;;;;;9.32;4.82;;;;;;;-145.23;100.00;58621.06;5006058;28;20770;-53
2022/10/02 08:21:02;;;;;;;12.80;8.93;;;;;;;-145.23;100.00;58621.06;4986734;28;20233;-52
2022/10/02 08:23:32;;;;;;;9.50;4.65;;;;;;;-145.23;100.00;58621.06;4991530;28;20226;-52
2022/10/02 08:26:03;;;;;;;8.23;4.68;;;;;;;-145.23;100.00;58621.06;4986709;28;20325;-52
2022/10/02 08:28:36;;;;;;;7.82;4.63;;;;;;;-145.23;100.00;58621.06;4982664;28;20237;-53
2022/10/02 08:31:08;;;;;;;8.85;5.30;;;;;;;-145.23;100.00;58621.06;4988420;28;20245;-53
2022/10/02 08:33:35;;;;;;;9.60;4.22;;;;;;;-145.23;100.00;58621.06;4992201;28;20257;-52
2022/10/02 08:36:40;;;;;;;9.52;4.35;;;;;;;-145.23;100.00;58621.06;4989500;28;20237;-51
2022/10/02 08:39:15;;;;;;;6.13;3.85;;;;;;;-145.23;100.00;58621.06;4981953;28;20613;-52
2022/10/02 08:42:18;;;;;;;8.85;4.25;;;;;;;-145.23;100.00;58621.06;4988393;28;20296;-53
2022/10/02 08:45:14;;;;;;;11.13;4.72;;;;;;;-145.23;100.00;58621.06;4989635;28;20236;-52
2022/10/02 08:48:06;;;;;;;11.05;4.03;;;;;;;-145.23;100.00;58621.06;4991159;28;20233;-51
2022/10/02 08:50:53;;;;;;;13.90;5.07;;;;;;;-145.23;100.00;58621.06;4999532;28;20292;-52
2022/10/02 08:53:41;;;;;;;7.47;4.68;;;;;;;-145.23;100.00;58621.06;4988000;28;20444;-52
2022/10/02 08:56:18;;;;;;;10.90;5.03;;;;;;;-145.23;100.00;58621.06;4994936;28;20237;-52
2022/10/02 08:59:07;;;;;;;7.82;4.32;;;;;;;-145.23;100.00;58621.06;5022256;28;20685;-53
2022/10/02 09:02:01;;;;;;;9.00;4.22;;;;;;;-145.23;100.00;58621.06;5007337;28;20280;-52
2022/10/02 09:05:03;;;;;;;13.60;4.53;;;;;;;-145.23;100.00;58621.06;4992028;28;20238;-52
2022/10/02 09:08:02;;;;;;;4.68;3.85;;;;;;;-145.23;100.00;58621.06;4974940;28;20309;-53
2022/10/02 09:10:51;;;;;;;9.45;4.15;;;;;;;-145.23;100.00;58621.06;4965889;28;20299;-52
2022/10/02 09:13:41;;;;;;;7.03;3.85;;;;;;;-145.23;100.00;58621.06;4999752;28;20225;-53
2022/10/02 09:16:10;;;;;;;13.45;4.78;;;;;;;-145.23;100.00;58621.06;4997494;28;20229;-52
2022/10/02 09:18:51;;;;;;;11.23;4.90;;;;;;;-145.23;100.00;58621.06;4991717;28;20320;-52
2022/10/02 09:21:19;;;;;;;7.25;4.32;;;;;;;-145.23;100.00;58621.06;5004113;28;20282;-51
2022/10/02 09:24:28;;;;;;;10.65;4.38;;;;;;;-145.23;100.00;58621.06;4996137;28;20221;-52
2022/10/02 09:27:22;;;;;;;10.88;5.03;;;;;;;-145.23;100.00;58621.06;4993435;28;20321;-52
2022/10/02 09:30:26;;;;;;;14.32;5.38;;;;;;;-145.23;100.00;58621.06;4985570;28;22461;-52
2022/10/02 09:33:32;;;;;;;11.57;4.15;;;;;;;-145.23;100.00;58621.06;4995759;28;20291;-52
2022/10/02 09:36:25;;;;;;;10.52;3.85;;;;;;;-145.23;100.00;58621.06;4983652;28;20249;-52
2022/10/02 09:39:25;;;;;;;8.48;3.55;;;;;;;-145.23;100.00;58621.06;4996238;28;20252;-52
2022/10/02 09:42:13;;;;;;;10.20;4.13;;;;;;;-145.23;100.00;58621.06;4991527;28;20241;-52
2022/10/02 09:45:27;;;;;;;7.25;4.47;;;;;;;-145.23;100.00;58621.06;4993400;28;20711;-52
2022/10/02 09:48:39;;;;;;;8.32;3.78;;;;;;;-145.23;100.00;58621.06;4979521;28;20590;-51
2022/10/02 09:51:45;;;;;;;6.63;3.65;;;;;;;-145.23;100.00;58621.06;4993870;28;20272;-51
2022/10/02 09:54:31;;;;;;;17.48;4.05;;;;;;;-145.23;100.00;58621.06;4946194;28;20234;-51
2022/10/02 09:57:40;;;;;;;10.45;3.10;;;;;;;-145.23;100.00;58621.06;4995081;28;20237;-52
2022/10/02 10:00:16;;;;;;;12.45;4.30;;;;;;;-145.23;100.00;58621.06;4976305;28;20242;-53
2022/10/02 10:03:17;;;;;;;6.03;2.90;;;;;;;-145.23;100.00;58621.06;4998793;28;20761;-51
2022/10/02 10:06:18;;;;;;;8.63;3.55;;;;;;;-145.23;100.00;58621.06;4993594;28;20259;-52
2022/10/02 10:09:10;;;;;;;5.93;3.58;;;;;;;-145.23;100.00;58621.06;4997789;28;20256;-54
2022/10/02 10:12:04;;;;;;;8.63;3.05;;;;;;;-145.23;100.00;58621.06;4995590;28;20240;-52
2022/10/02 10:15:12;;;;;;;8.88;3.25;;;;;;;-145.23;100.00;58621.06;4998830;28;20251;-55
2022/10/02 10:18:02;;;;;;;6.30;3.33;;;;;;;-145.23;100.00;58621.06;4992559;28;20240;-53
2022/10/02 10:20:53;;;;;;;15.32;3.97;;;;;;;-145.23;100.00;58621.06;5000110;28;20240;-53
2022/10/02 10:23:36;;;;;;;8.82;3.38;;;;;;;-145.23;100.00;58621.06;4988494;28;20255;-53
2022/10/02 10:26:15;;;;;;;9.10;3.67;;;;;;;-145.23;100.00;58621.06;4992314;28;20236;-53
2022/10/02 10:29:09;;;;;;;5.55;3.22;;;;;;;-145.23;100.00;58621.06;4996169;28;20240;-53
2022/10/02 10:32:23;;;;;;;6.78;4.35;;;;;;;-145.23;100.00;58621.06;4993360;28;20244;-53
2022/10/02 10:35:20;;;;;;;9.20;3.70;;;;;;;-145.23;100.00;58621.06;4950024;28;20266;-53
2022/10/02 10:41:18;;;;;;;9.13;5.07;;;;;;;-145.23;100.00;58621.06;4989751;28;20647;-52
2022/10/02 10:44:17;;;;;;;7.30;3.55;;;;;;;-145.23;100.00;58621.06;4995855;28;20260;-52
2022/10/02 10:47:03;;;;;;;3.53;2.60;;;;;;;-145.23;100.00;58621.06;4998481;28;20544;-52
2022/10/02 10:50:03;;;;;;;6.22;3.03;;;;;;;-145.23;100.00;58621.06;4999275;28;20291;-52
2022/10/02 10:52:45;;;;;;;7.03;2.60;;;;;;;-145.23;100.00;58621.06;4998364;28;20238;-52
2022/10/02 10:55:18;;;;;;;5.60;2.85;;;;;;;-145.23;100.00;58621.06;5002948;28;20236;-52
2022/10/02 10:57:54;;;;;;;5.93;2.72;;;;;;;-145.23;100.00;58621.06;4996461;28;20320;-53
2022/10/02 11:00:25;;;;;;;6.32;3.42;;;;;;;-145.23;100.00;58621.06;4995747;28;20232;-52
2022/10/02 11:03:23;;;;;;;9.95;4.47;;;;;;;-145.23;100.00;58621.06;5000270;28;20231;-51
2022/10/02 11:06:44;;;;;;;5.72;3.78;;;;;;;-145.23;100.00;58621.06;4969540;28;20237;-52
2022/10/02 11:09:55;;;;;;;5.25;4.05;;;;;;;-145.23;100.00;58621.06;4999454;28;20225;-52
2022/10/02 11:12:52;;;;;;;7.07;4.32;;;;;;;-145.23;100.00;58621.06;4972605;28;21138;-53
2022/10/02 11:15:27;;;;;;;6.32;3.42;;;;;;;-145.23;100.00;58621.06;4961172;28;20724;-53
2022/10/02 11:18:05;;;;;;;12.93;3.80;;;;;;;-145.23;100.00;58621.06;4986595;28;20252;-51
2022/10/02 11:20:56;;;;;;;4.18;3.75;;;;;;;-145.23;100.00;58621.06;4996271;28;20236;-51
2022/10/02 11:23:36;;;;;;;5.78;3.10;;;;;;;-145.23;100.00;58621.06;4987443;28;20233;-51
2022/10/02 11:26:23;;;;;;;6.22;3.45;;;;;;;-145.23;100.00;58621.06;4999578;28;20233;-52
2022/10/02 11:29:11;;;;;;;5.47;3.47;;;;;;;-145.23;100.00;58621.06;4996245;28;20240;-52
2022/10/02 11:31:55;;;;;;;5.68;3.17;;;;;;;-145.23;100.00;58621.06;4991021;28;20444;-52
2022/10/02 11:34:43;;;;;;;3.13;2.65;;;;;;;-145.23;100.00;58621.06;4992826;28;20241;-51
2022/10/02 11:37:23;;;;;;;5.05;3.22;;;;;;;-145.23;100.00;58621.06;4993421;28;20241;-51
2022/10/02 11:40:03;;;;;;;7.32;3.40;;;;;;;-145.23;100.00;58621.06;4995394;28;20229;-52
2022/10/02 11:42:41;;;;;;;6.05;3.72;;;;;;;-145.23;100.00;58621.06;4992208;28;20240;-51
2022/10/02 11:45:33;;;;;;;6.13;3.15;;;;;;;-145.23;100.00;58621.06;5001780;28;20233;-51
2022/10/02 11:48:32;;;;;;;5.45;3.28;;;;;;;-145.23;100.00;58621.06;4997592;28;20237;-51
2022/10/02 11:51:24;;;;;;;6.95;2.58;;;;;;;-145.23;100.00;58621.06;4995439;28;20291;-53
2022/10/02 11:54:15;;;;;;;5.35;2.85;;;;;;;-145.23;100.00;58621.06;5000775;28;20252;-51
2022/10/02 11:56:59;;;;;;;6.13;3.22;;;;;;;-145.23;100.00;58621.06;4983545;28;20237;-52
2022/10/02 12:00:04;;;;;;;11.68;4.22;;;;;;;-145.23;100.00;58621.06;4997628;28;20780;-52
2022/10/02 12:02:37;;;;;;;7.95;3.60;;;;;;;-145.23;100.00;58621.06;4993841;28;20230;-52